Time;durP1;ratioP1;P1;durP2;ratioP2;P2;SDS_P1;SDS_P2;PMS_P1;PMS_P2;Temp;Humidity;BMP_temperature;BMP_pressure;BME280_temperature;BME280_humidity;BME280_pressure;Samples;Min_cycle;Max_cycle;Signal;HPM_P1;HPM_P2
2022/12/08 00:00:46;;;;;;;7.43;2.00;;;;;;;;;;4995727;28;20026;-70
2022/12/08 00:03:11;;;;;;;4.20;2.00;;;;;;;;;;4995405;28;20431;-68
2022/12/08 00:11:05;;;;;;;5.03;2.00;;;;;;;;;;4995559;28;20037;-68
2022/12/08 00:13:30;;;;;;;4.32;2.03;;;;;;;;;;4995477;28;20022;-67
2022/12/08 00:16:01;;;;;;;3.65;2.25;;;;;;;;;;4992266;28;20070;-67
2022/12/08 00:18:27;;;;;;;4.93;1.98;;;;;;;;;;4994899;28;20492;-68
2022/12/08 00:20:57;;;;;;;3.10;1.90;;;;;;;;;;4995163;28;20027;-67
2022/12/08 00:23:23;;;;;;;6.00;2.35;;;;;;;;;;4997089;28;20422;-68
2022/12/08 00:25:48;;;;;;;3.15;1.65;;;;;;;;;;5014637;28;20052;-68
2022/12/08 00:28:13;;;;;;;3.13;1.70;;;;;;;;;;5014725;28;20041;-68
2022/12/08 00:30:40;;;;;;;3.67;1.92;;;;;;;;;;5014715;28;20017;-68
2022/12/08 00:33:05;;;;;;;2.35;1.63;;;;;;;;;;5014570;28;20022;-68
2022/12/08 00:35:31;;;;;;;3.80;1.85;;;;;;;;;;5013634;28;20106;-68
2022/12/08 00:37:56;;;;;;;5.28;1.75;;;;;;;;;;5014709;28;20469;-68
2022/12/08 00:40:22;;;;;;;4.45;1.90;;;;;;;;;;5014491;28;20113;-68
2022/12/08 00:42:47;;;;;;;3.13;1.52;;;;;;;;;;5014468;28;20064;-68
2022/12/08 00:45:13;;;;;;;2.92;1.77;;;;;;;;;;5014425;28;20444;-68
2022/12/08 00:47:38;;;;;;;4.40;2.15;;;;;;;;;;5014043;28;20037;-69
2022/12/08 00:50:04;;;;;;;2.78;1.60;;;;;;;;;;5014297;28;20083;-68
2022/12/08 00:52:30;;;;;;;2.97;1.77;;;;;;;;;;5014331;28;20030;-68
2022/12/08 00:54:55;;;;;;;4.20;1.90;;;;;;;;;;5014140;28;20022;-68
2022/12/08 00:57:21;;;;;;;2.63;1.73;;;;;;;;;;5014345;28;20374;-68
2022/12/08 00:59:46;;;;;;;4.40;1.58;;;;;;;;;;5014246;28;20026;-68
2022/12/08 01:02:12;;;;;;;2.90;1.65;;;;;;;;;;4996362;28;20147;-68
2022/12/08 01:04:37;;;;;;;4.05;2.10;;;;;;;;;;5013921;28;20036;-68
2022/12/08 01:07:03;;;;;;;2.83;1.58;;;;;;;;;;5013998;28;20104;-67
2022/12/08 01:09:28;;;;;;;4.22;2.03;;;;;;;;;;5013982;28;20384;-68
2022/12/08 01:11:54;;;;;;;4.07;1.67;;;;;;;;;;5014013;28;20025;-67
2022/12/08 01:14:20;;;;;;;5.38;1.90;;;;;;;;;;5013885;28;20489;-67
2022/12/08 01:16:45;;;;;;;3.95;2.00;;;;;;;;;;5013624;28;20038;-68
2022/12/08 01:19:12;;;;;;;3.13;1.90;;;;;;;;;;5013873;28;20026;-67
2022/12/08 01:21:39;;;;;;;2.95;1.90;;;;;;;;;;4999539;28;20455;-67
2022/12/08 01:24:05;;;;;;;3.42;1.95;;;;;;;;;;4994321;28;20030;-68
2022/12/08 01:26:30;;;;;;;3.83;1.90;;;;;;;;;;4993927;28;20422;-67
2022/12/08 01:28:56;;;;;;;6.05;1.80;;;;;;;;;;5008726;28;20030;-68
2022/12/08 01:31:22;;;;;;;3.30;1.70;;;;;;;;;;5013509;28;20477;-68
2022/12/08 01:33:48;;;;;;;5.32;2.30;;;;;;;;;;5013392;28;20108;-69
2022/12/08 01:36:28;;;;;;;3.90;1.88;;;;;;;;;;5013721;28;20050;-69
2022/12/08 01:38:57;;;;;;;6.20;1.90;;;;;;;;;;5013642;28;20033;-68
2022/12/08 01:41:24;;;;;;;5.53;1.77;;;;;;;;;;5013581;28;20030;-68
2022/12/08 01:43:50;;;;;;;5.68;2.10;;;;;;;;;;5013464;28;20037;-69
2022/12/08 01:46:15;;;;;;;2.40;1.52;;;;;;;;;;5013261;28;20026;-69
2022/12/08 01:48:41;;;;;;;3.95;2.00;;;;;;;;;;5012431;28;20022;-69
2022/12/08 01:51:06;;;;;;;3.58;1.90;;;;;;;;;;5013430;28;20026;-69
2022/12/08 01:53:32;;;;;;;3.88;1.70;;;;;;;;;;5013240;28;20152;-69
2022/12/08 01:56:07;;;;;;;2.75;1.40;;;;;;;;;;5013033;28;20113;-69
2022/12/08 01:58:38;;;;;;;6.78;1.98;;;;;;;;;;5013217;28;20026;-69
2022/12/08 02:01:04;;;;;;;2.67;1.63;;;;;;;;;;5013106;28;20025;-69
2022/12/08 02:04:00;;;;;;;4.85;2.00;;;;;;;;;;5013213;28;20032;-69
2022/12/08 02:06:32;;;;;;;5.22;2.00;;;;;;;;;;5012635;28;20065;-69
2022/12/08 02:09:00;;;;;;;6.35;2.20;;;;;;;;;;5013244;28;20062;-69
2022/12/08 02:11:26;;;;;;;8.18;2.15;;;;;;;;;;5012974;28;20030;-69
2022/12/08 02:13:53;;;;;;;3.53;1.80;;;;;;;;;;5012829;28;20036;-69
2022/12/08 02:16:34;;;;;;;3.38;1.92;;;;;;;;;;5013011;28;20029;-69
2022/12/08 02:19:36;;;;;;;4.55;1.83;;;;;;;;;;5013033;28;20033;-69
2022/12/08 02:22:24;;;;;;;4.40;1.50;;;;;;;;;;5012143;28;20073;-69
2022/12/08 02:24:57;;;;;;;2.85;1.70;;;;;;;;;;5012731;28;20049;-69
2022/12/08 02:28:02;;;;;;;3.83;1.70;;;;;;;;;;5012646;28;20159;-69
2022/12/08 02:30:46;;;;;;;1.88;1.30;;;;;;;;;;5012717;28;20135;-69
2022/12/08 02:33:14;;;;;;;4.10;1.60;;;;;;;;;;4996546;28;20038;-68
2022/12/08 02:36:07;;;;;;;2.45;1.33;;;;;;;;;;4993238;28;20101;-69
2022/12/08 02:39:04;;;;;;;2.88;1.60;;;;;;;;;;4993268;28;20509;-69
2022/12/08 02:41:53;;;;;;;4.95;2.00;;;;;;;;;;4989894;28;20050;-69
2022/12/08 02:44:32;;;;;;;5.80;2.47;;;;;;;;;;4991566;28;20045;-68
2022/12/08 02:47:04;;;;;;;3.35;1.70;;;;;;;;;;4993149;28;20419;-68
2022/12/08 02:49:34;;;;;;;3.20;1.83;;;;;;;;;;4993022;28;20081;-69
2022/12/08 02:52:26;;;;;;;4.45;2.10;;;;;;;;;;4993061;28;20031;-68
2022/12/08 02:55:04;;;;;;;3.97;1.70;;;;;;;;;;4989763;28;20096;-68
2022/12/08 02:57:42;;;;;;;3.58;1.50;;;;;;;;;;4992907;28;20022;-68
2022/12/08 03:00:12;;;;;;;3.42;1.65;;;;;;;;;;4992915;28;20026;-68
2022/12/08 03:02:51;;;;;;;3.97;1.80;;;;;;;;;;4992907;28;20033;-68
2022/12/08 03:05:35;;;;;;;4.20;2.45;;;;;;;;;;4993053;28;20022;-68
2022/12/08 03:08:09;;;;;;;3.42;1.70;;;;;;;;;;4993109;28;20034;-68
2022/12/08 03:10:49;;;;;;;4.50;1.90;;;;;;;;;;4996692;28;20046;-68
2022/12/08 03:13:17;;;;;;;;;;;;;;;;;;4996970;28;20025;-68
2022/12/08 03:15:47;;;;;;;5.50;1.60;;;;;;;;;;4996661;28;19913;-68
2022/12/08 03:18:15;;;;;;;2.53;1.50;;;;;;;;;;4996705;28;20057;-68
2022/12/08 03:20:43;;;;;;;1.92;1.38;;;;;;;;;;4996297;28;20034;-68
2022/12/08 03:23:11;;;;;;;3.78;2.00;;;;;;;;;;4996524;28;20037;-68
2022/12/08 03:25:42;;;;;;;6.20;1.70;;;;;;;;;;4996253;28;20046;-68
2022/12/08 03:28:08;;;;;;;6.13;2.30;;;;;;;;;;5004447;28;20030;-68
2022/12/08 03:30:38;;;;;;;5.18;1.40;;;;;;;;;;5015748;28;20029;-68
2022/12/08 03:33:21;;;;;;;2.67;1.60;;;;;;;;;;5015911;28;20021;-68
2022/12/08 03:35:48;;;;;;;1.80;1.30;;;;;;;;;;5016022;28;20045;-68
2022/12/08 03:38:15;;;;;;;3.90;1.80;;;;;;;;;;5015873;28;20021;-68
2022/12/08 03:40:40;;;;;;;2.40;1.58;;;;;;;;;;5015404;28;20029;-68
2022/12/08 03:43:06;;;;;;;6.72;2.50;;;;;;;;;;5015709;28;20036;-68
2022/12/08 03:45:32;;;;;;;7.05;1.67;;;;;;;;;;5015739;28;20026;-68
2022/12/08 03:47:58;;;;;;;3.63;1.27;;;;;;;;;;5015775;28;20087;-68
2022/12/08 03:50:23;;;;;;;4.05;1.60;;;;;;;;;;5015540;28;20492;-68
2022/12/08 03:52:49;;;;;;;3.15;1.63;;;;;;;;;;5015491;28;20049;-68
2022/12/08 03:55:15;;;;;;;2.40;1.45;;;;;;;;;;5015350;28;20381;-68
2022/12/08 03:57:40;;;;;;;3.28;1.33;;;;;;;;;;5015437;28;20034;-68
2022/12/08 04:00:08;;;;;;;5.40;1.58;;;;;;;;;;5015412;28;20029;-69
2022/12/08 04:02:34;;;;;;;3.85;1.80;;;;;;;;;;5015389;28;20038;-69
2022/12/08 04:04:59;;;;;;;4.95;1.45;;;;;;;;;;5015395;28;20107;-69
2022/12/08 04:07:25;;;;;;;4.03;1.60;;;;;;;;;;5015334;28;20128;-69
2022/12/08 04:09:50;;;;;;;1.67;1.30;;;;;;;;;;5015022;28;20465;-69
2022/12/08 04:12:16;;;;;;;8.50;1.98;;;;;;;;;;5015241;28;20477;-69
2022/12/08 04:14:41;;;;;;;5.57;1.90;;;;;;;;;;5015105;28;20065;-69
2022/12/08 04:17:07;;;;;;;5.57;1.95;;;;;;;;;;5015114;28;20029;-69
2022/12/08 04:19:32;;;;;;;4.57;1.67;;;;;;;;;;5014610;28;20028;-69
2022/12/08 04:21:57;;;;;;;3.30;1.50;;;;;;;;;;5015058;28;20487;-69
2022/12/08 04:24:23;;;;;;;2.08;1.40;;;;;;;;;;5014779;28;20022;-69
2022/12/08 04:26:49;;;;;;;3.25;1.90;;;;;;;;;;5014647;28;20084;-69
2022/12/08 04:29:15;;;;;;;4.82;1.38;;;;;;;;;;5014570;28;20083;-69
2022/12/08 04:31:41;;;;;;;3.35;1.80;;;;;;;;;;5014761;28;20397;-69
2022/12/08 04:34:06;;;;;;;4.18;2.00;;;;;;;;;;5014762;28;20034;-69
2022/12/08 04:36:32;;;;;;;2.83;1.85;;;;;;;;;;5014577;28;20037;-69
2022/12/08 04:38:57;;;;;;;5.00;2.40;;;;;;;;;;5014557;28;20029;-69
2022/12/08 04:41:23;;;;;;;3.00;2.30;;;;;;;;;;5014611;28;20029;-69
2022/12/08 04:43:48;;;;;;;3.13;1.95;;;;;;;;;;5014372;28;20117;-69
2022/12/08 04:46:14;;;;;;;8.70;2.83;;;;;;;;;;5014677;28;20022;-69
2022/12/08 04:48:40;;;;;;;3.80;2.03;;;;;;;;;;5014450;28;20030;-69
2022/12/08 04:51:06;;;;;;;8.32;2.80;;;;;;;;;;5014382;28;20025;-69
2022/12/08 04:53:32;;;;;;;6.13;2.50;;;;;;;;;;5014137;28;20071;-68
2022/12/08 04:55:58;;;;;;;5.70;3.20;;;;;;;;;;5014459;28;20062;-69
2022/12/08 04:58:23;;;;;;;5.90;3.03;;;;;;;;;;5014025;28;20056;-69
2022/12/08 05:00:49;;;;;;;7.57;3.10;;;;;;;;;;5014127;28;20036;-69
2022/12/08 05:03:15;;;;;;;6.75;3.33;;;;;;;;;;5014189;28;20076;-69
2022/12/08 05:05:41;;;;;;;10.13;4.50;;;;;;;;;;5014088;28;20022;-68
2022/12/08 05:08:08;;;;;;;6.43;3.72;;;;;;;;;;5013849;28;20033;-69
2022/12/08 05:10:34;;;;;;;7.28;2.97;;;;;;;;;;5013887;28;20091;-69
2022/12/08 05:12:59;;;;;;;7.97;4.22;;;;;;;;;;5014038;28;20105;-68
2022/12/08 05:15:25;;;;;;;8.70;4.00;;;;;;;;;;5013975;28;20113;-69
2022/12/08 05:17:50;;;;;;;9.25;3.67;;;;;;;;;;5013780;28;20026;-69
2022/12/08 05:20:16;;;;;;;9.25;4.15;;;;;;;;;;5013768;28;20070;-69
2022/12/08 05:22:42;;;;;;;7.95;4.10;;;;;;;;;;5013669;28;20034;-69
2022/12/08 05:25:07;;;;;;;11.95;5.00;;;;;;;;;;5013749;28;20131;-69
2022/12/08 05:27:33;;;;;;;8.48;4.68;;;;;;;;;;5013486;28;20022;-69
2022/12/08 05:29:58;;;;;;;10.27;4.28;;;;;;;;;;5013627;28;20037;-70
2022/12/08 05:32:24;;;;;;;9.02;3.40;;;;;;;;;;5012999;28;20088;-70
2022/12/08 05:34:50;;;;;;;9.43;4.20;;;;;;;;;;5013499;28;20034;-70
2022/12/08 05:37:15;;;;;;;8.02;4.00;;;;;;;;;;5013509;28;20492;-70
2022/12/08 05:39:41;;;;;;;7.80;3.20;;;;;;;;;;5013400;28;20445;-70
2022/12/08 05:42:06;;;;;;;8.68;4.45;;;;;;;;;;5013540;28;20033;-69
2022/12/08 05:44:32;;;;;;;10.48;4.35;;;;;;;;;;5013371;28;20481;-70
2022/12/08 05:46:57;;;;;;;9.02;3.90;;;;;;;;;;5013361;28;20065;-69
2022/12/08 05:49:23;;;;;;;9.10;3.78;;;;;;;;;;5013466;28;20044;-69
2022/12/08 05:51:48;;;;;;;9.90;4.13;;;;;;;;;;5013221;28;20393;-70
2022/12/08 05:54:14;;;;;;;7.15;3.53;;;;;;;;;;5013205;28;20429;-69
2022/12/08 05:56:39;;;;;;;5.90;3.30;;;;;;;;;;5013239;28;20053;-69
2022/12/08 05:59:06;;;;;;;5.75;2.67;;;;;;;;;;5013075;28;20101;-70
2022/12/08 06:01:31;;;;;;;4.03;2.58;;;;;;;;;;5013259;28;20036;-70
2022/12/08 06:03:59;;;;;;;8.25;3.80;;;;;;;;;;5013166;28;20026;-70
2022/12/08 06:06:24;;;;;;;7.30;4.00;;;;;;;;;;5012669;28;20099;-70
2022/12/08 06:08:50;;;;;;;10.88;4.63;;;;;;;;;;5012824;28;20037;-69
2022/12/08 06:11:21;;;;;;;9.02;4.53;;;;;;;;;;5012973;28;20022;-70
2022/12/08 06:13:46;;;;;;;;;;;;;;;;;;5013521;28;20033;-69
2022/12/08 06:16:12;;;;;;;7.05;3.15;;;;;;;;;;5011673;28;19917;-69
2022/12/08 06:18:37;;;;;;;9.90;4.72;;;;;;;;;;5012853;28;20026;-70
2022/12/08 06:21:05;;;;;;;9.40;5.35;;;;;;;;;;5012646;28;20060;-69
2022/12/08 06:23:31;;;;;;;10.18;4.70;;;;;;;;;;5012921;28;20141;-70
2022/12/08 06:26:09;;;;;;;10.20;4.63;;;;;;;;;;5012785;28;20038;-70
2022/12/08 06:28:35;;;;;;;6.70;3.60;;;;;;;;;;5011307;28;20104;-69
2022/12/08 06:31:07;;;;;;;10.23;4.45;;;;;;;;;;5012511;28;20033;-70
2022/12/08 06:33:33;;;;;;;10.18;4.97;;;;;;;;;;5012760;28;20485;-70
2022/12/08 06:35:58;;;;;;;9.45;4.03;;;;;;;;;;5012566;28;20034;-70
2022/12/08 06:38:24;;;;;;;9.43;4.60;;;;;;;;;;5012789;28;20037;-69
2022/12/08 06:40:54;;;;;;;6.93;4.13;;;;;;;;;;5012584;28;20060;-69
2022/12/08 06:43:19;;;;;;;10.38;4.18;;;;;;;;;;5015217;28;20026;-69
2022/12/08 06:45:45;;;;;;;8.82;4.40;;;;;;;;;;5016399;28;20113;-69
2022/12/08 06:48:10;;;;;;;7.55;4.07;;;;;;;;;;5016722;28;20026;-69
2022/12/08 06:50:36;;;;;;;8.18;3.85;;;;;;;;;;5016327;28;20049;-70
2022/12/08 06:53:01;;;;;;;5.75;3.47;;;;;;;;;;5016497;28;20879;-70
2022/12/08 06:55:27;;;;;;;8.88;4.00;;;;;;;;;;5016427;28;20041;-70
2022/12/08 06:57:53;;;;;;;8.75;4.88;;;;;;;;;;5016481;28;20029;-69
2022/12/08 07:00:19;;;;;;;7.95;3.95;;;;;;;;;;5016388;28;20030;-69
2022/12/08 07:02:44;;;;;;;7.10;3.88;;;;;;;;;;5016286;28;20091;-69
2022/12/08 07:05:10;;;;;;;6.57;3.30;;;;;;;;;;5015834;28;20032;-69
2022/12/08 07:07:35;;;;;;;11.65;5.30;;;;;;;;;;5016245;28;20060;-70
2022/12/08 07:10:01;;;;;;;10.80;4.47;;;;;;;;;;5016143;28;20381;-69
2022/12/08 07:12:26;;;;;;;8.00;4.60;;;;;;;;;;5014850;28;20109;-67
2022/12/08 07:14:51;;;;;;;9.85;5.07;;;;;;;;;;5015825;28;20034;-67
2022/12/08 07:17:17;;;;;;;10.05;4.45;;;;;;;;;;5016104;28;20472;-67
2022/12/08 07:19:42;;;;;;;8.68;3.95;;;;;;;;;;5015409;28;20358;-67
2022/12/08 07:22:08;;;;;;;11.75;4.88;;;;;;;;;;5015733;28;20029;-68
2022/12/08 07:24:33;;;;;;;10.65;5.22;;;;;;;;;;5014392;28;20028;-68
2022/12/08 07:26:59;;;;;;;12.00;5.55;;;;;;;;;;5015502;28;20056;-69
2022/12/08 07:29:24;;;;;;;11.20;5.35;;;;;;;;;;5015475;28;20464;-69
2022/12/08 07:31:50;;;;;;;14.52;6.05;;;;;;;;;;5015708;28;20535;-68
2022/12/08 07:34:15;;;;;;;8.48;5.05;;;;;;;;;;5015401;28;20038;-68
2022/12/08 07:36:41;;;;;;;12.18;5.53;;;;;;;;;;5015722;28;20028;-68
2022/12/08 07:39:06;;;;;;;10.20;4.90;;;;;;;;;;5015733;28;20022;-69
2022/12/08 07:41:32;;;;;;;9.60;4.85;;;;;;;;;;5015684;28;20030;-69
2022/12/08 07:43:57;;;;;;;4.90;2.95;;;;;;;;;;5015798;28;20062;-69
2022/12/08 07:46:24;;;;;;;10.45;4.70;;;;;;;;;;5015753;28;20554;-69
2022/12/08 07:48:51;;;;;;;4.40;2.85;;;;;;;;;;5015359;28;20420;-69
2022/12/08 07:51:17;;;;;;;13.93;5.57;;;;;;;;;;5015669;28;20434;-69
2022/12/08 07:53:44;;;;;;;6.35;3.33;;;;;;;;;;5014868;28;20034;-69
2022/12/08 07:56:11;;;;;;;13.65;5.22;;;;;;;;;;5015224;28;20026;-69
2022/12/08 07:58:37;;;;;;;11.15;5.07;;;;;;;;;;5015553;28;20025;-69
2022/12/08 08:01:03;;;;;;;10.40;5.15;;;;;;;;;;5015289;28;20034;-69
2022/12/08 08:03:28;;;;;;;11.07;5.60;;;;;;;;;;5005972;28;20026;-69
2022/12/08 08:05:54;;;;;;;10.93;4.80;;;;;;;;;;4995163;28;20381;-69
2022/12/08 08:08:20;;;;;;;11.88;6.10;;;;;;;;;;4995766;28;20030;-69
2022/12/08 08:10:46;;;;;;;11.10;5.82;;;;;;;;;;4995642;28;20057;-68
2022/12/08 08:13:11;;;;;;;11.18;5.32;;;;;;;;;;4995593;28;20026;-69
2022/12/08 08:15:37;;;;;;;9.40;5.53;;;;;;;;;;4995536;28;20117;-69
2022/12/08 08:18:03;;;;;;;11.75;5.55;;;;;;;;;;4995419;28;20083;-69
2022/12/08 08:20:28;;;;;;;12.15;5.88;;;;;;;;;;4995016;28;20045;-69
2022/12/08 08:22:54;;;;;;;10.38;5.32;;;;;;;;;;4995430;28;20113;-69
2022/12/08 08:25:23;;;;;;;4.85;3.30;;;;;;;;;;4995301;28;20100;-68
2022/12/08 08:27:49;;;;;;;8.52;5.35;;;;;;;;;;4999577;28;20558;-69
2022/12/08 08:30:16;;;;;;;8.50;4.88;;;;;;;;;;5014701;28;20108;-68
2022/12/08 08:32:42;;;;;;;12.30;6.30;;;;;;;;;;5014450;28;20025;-69
2022/12/08 08:35:08;;;;;;;12.07;6.47;;;;;;;;;;5014698;28;20571;-68
2022/12/08 08:37:33;;;;;;;12.80;6.28;;;;;;;;;;5014571;28;20108;-68
2022/12/08 08:39:59;;;;;;;11.45;6.20;;;;;;;;;;5014640;28;20030;-68
2022/12/08 08:42:24;;;;;;;13.60;6.20;;;;;;;;;;5014497;28;20121;-68
2022/12/08 08:44:50;;;;;;;10.77;6.35;;;;;;;;;;5014215;28;20061;-68
2022/12/08 08:47:15;;;;;;;9.15;5.35;;;;;;;;;;5014686;28;20033;-69
2022/12/08 08:49:41;;;;;;;9.45;5.32;;;;;;;;;;5014492;28;20105;-69
2022/12/08 08:52:06;;;;;;;15.95;6.68;;;;;;;;;;5014255;28;20049;-69
2022/12/08 08:54:32;;;;;;;12.38;7.07;;;;;;;;;;5014185;28;20068;-69
2022/12/08 08:56:59;;;;;;;13.20;7.55;;;;;;;;;;5000348;28;20030;-69
2022/12/08 08:59:26;;;;;;;13.05;6.93;;;;;;;;;;4994059;28;20031;-69
2022/12/08 09:01:52;;;;;;;14.50;7.50;;;;;;;;;;4994369;28;20377;-69
2022/12/08 09:04:17;;;;;;;13.25;7.70;;;;;;;;;;4994311;28;20037;-69
2022/12/08 09:06:44;;;;;;;14.57;7.35;;;;;;;;;;4993119;28;20022;-69
2022/12/08 09:09:09;;;;;;;15.93;7.45;;;;;;;;;;4994218;28;20033;-69
2022/12/08 09:11:35;;;;;;;16.27;8.63;;;;;;;;;;4994190;28;20026;-69
2022/12/08 09:14:01;;;;;;;16.27;7.55;;;;;;;;;;4993933;28;20038;-68
2022/12/08 09:16:26;;;;;;;16.33;8.60;;;;;;;;;;4994133;28;20030;-69
2022/12/08 09:18:52;;;;;;;14.48;7.78;;;;;;;;;;4993974;28;20029;-69
2022/12/08 09:21:21;;;;;;;16.88;9.02;;;;;;;;;;4993913;28;20031;-68
2022/12/08 09:23:48;;;;;;;15.70;8.80;;;;;;;;;;4994066;28;20049;-68
2022/12/08 09:26:14;;;;;;;13.38;7.78;;;;;;;;;;4993820;28;20046;-68
2022/12/08 09:28:45;;;;;;;15.18;8.93;;;;;;;;;;5003198;28;20365;-68
2022/12/08 09:31:14;;;;;;;17.85;9.50;;;;;;;;;;4993916;28;20440;-69
2022/12/08 09:33:39;;;;;;;19.25;9.23;;;;;;;;;;4993834;28;20473;-68
2022/12/08 09:36:05;;;;;;;15.60;9.40;;;;;;;;;;4993668;28;20076;-68
2022/12/08 09:38:31;;;;;;;18.38;8.90;;;;;;;;;;4993606;28;20029;-69
2022/12/08 09:40:57;;;;;;;16.23;8.13;;;;;;;;;;4993608;28;20461;-68
2022/12/08 09:43:40;;;;;;;16.05;10.02;;;;;;;;;;4993679;28;20084;-69
2022/12/08 09:46:09;;;;;;;17.77;10.63;;;;;;;;;;4993693;28;20022;-69
2022/12/08 09:48:43;;;;;;;16.25;9.93;;;;;;;;;;4992105;28;20066;-68
2022/12/08 09:51:10;;;;;;;19.00;11.65;;;;;;;;;;4993685;28;20054;-69
2022/12/08 09:53:41;;;;;;;21.95;13.15;;;;;;;;;;4993366;28;20393;-69
2022/12/08 09:56:16;;;;;;;19.98;11.25;;;;;;;;;;4993500;28;20026;-69
2022/12/08 09:59:16;;;;;;;13.68;9.05;;;;;;;;;;4993120;28;20026;-69
2022/12/08 10:01:41;;;;;;;16.15;10.05;;;;;;;;;;4993378;28;20030;-68
2022/12/08 10:04:32;;;;;;;19.15;11.32;;;;;;;;;;4993386;28;20030;-69
2022/12/08 10:07:31;;;;;;;18.90;10.88;;;;;;;;;;4990396;28;20058;-68
2022/12/08 10:10:25;;;;;;;19.25;10.65;;;;;;;;;;4993165;28;20717;-69
2022/12/08 10:12:59;;;;;;;21.30;12.25;;;;;;;;;;4993024;28;20054;-69
2022/12/08 10:15:43;;;;;;;19.38;10.70;;;;;;;;;;4993278;28;20038;-69
2022/12/08 10:18:22;;;;;;;20.52;12.02;;;;;;;;;;4991489;28;20034;-69
2022/12/08 10:20:49;;;;;;;20.50;11.57;;;;;;;;;;4993128;28;20053;-69
2022/12/08 10:23:27;;;;;;;20.30;11.55;;;;;;;;;;4993224;28;20363;-69
2022/12/08 10:26:01;;;;;;;22.95;12.63;;;;;;;;;;4993025;28;20054;-69
2022/12/08 10:28:26;;;;;;;20.92;11.32;;;;;;;;;;5003355;28;20029;-69
2022/12/08 10:30:52;;;;;;;19.05;10.73;;;;;;;;;;5012554;28;20037;-69
2022/12/08 10:33:20;;;;;;;26.58;13.45;;;;;;;;;;4995728;28;20026;-69
2022/12/08 10:35:52;;;;;;;22.65;12.52;;;;;;;;;;4993025;28;20034;-69
2022/12/08 10:38:21;;;;;;;18.58;10.98;;;;;;;;;;4992982;28;20489;-69
2022/12/08 10:40:48;;;;;;;20.85;11.13;;;;;;;;;;4992839;28;20498;-69
2022/12/08 10:43:18;;;;;;;22.42;11.50;;;;;;;;;;4992927;28;20026;-69
2022/12/08 10:45:43;;;;;;;21.40;11.15;;;;;;;;;;4992773;28;20022;-69
2022/12/08 10:48:21;;;;;;;21.63;11.35;;;;;;;;;;4992882;28;20045;-69
2022/12/08 10:50:52;;;;;;;25.27;11.27;;;;;;;;;;4991494;28;20125;-69
2022/12/08 10:53:26;;;;;;;20.75;10.95;;;;;;;;;;4992903;28;20158;-69
2022/12/08 10:56:00;;;;;;;17.20;9.80;;;;;;;;;;4992641;28;20031;-69
2022/12/08 10:58:34;;;;;;;21.48;11.88;;;;;;;;;;4992652;28;20024;-69
2022/12/08 11:01:21;;;;;;;19.92;10.70;;;;;;;;;;4992787;28;20101;-69
2022/12/08 11:03:55;;;;;;;17.38;10.20;;;;;;;;;;4992858;28;20030;-69
2022/12/08 11:06:35;;;;;;;19.80;11.02;;;;;;;;;;4992622;28;20101;-70
2022/12/08 11:09:16;;;;;;;18.35;9.90;;;;;;;;;;4992720;28;20105;-69
2022/12/08 11:11:52;;;;;;;18.20;10.45;;;;;;;;;;4992525;28;20037;-69
2022/12/08 11:14:22;;;;;;;18.85;11.00;;;;;;;;;;4992631;28;20366;-69
2022/12/08 11:16:53;;;;;;;18.17;9.87;;;;;;;;;;4992699;28;20025;-69
2022/12/08 11:19:19;;;;;;;17.50;10.38;;;;;;;;;;4992753;28;20039;-69
2022/12/08 11:21:46;;;;;;;19.42;11.18;;;;;;;;;;4992560;28;20034;-70
2022/12/08 11:24:14;;;;;;;18.45;11.13;;;;;;;;;;4992252;28;20034;-69
2022/12/08 11:26:47;;;;;;;18.85;11.00;;;;;;;;;;4991642;28;20548;-69
2022/12/08 11:29:12;;;;;;;21.35;12.23;;;;;;;;;;4992272;28;20453;-70
2022/12/08 11:31:51;;;;;;;20.10;11.68;;;;;;;;;;4996149;28;20109;-69
2022/12/08 11:34:22;;;;;;;18.10;10.15;;;;;;;;;;4995946;28;20038;-69
2022/12/08 11:36:50;;;;;;;18.67;11.18;;;;;;;;;;4996093;28;20112;-70
2022/12/08 11:39:15;;;;;;;16.60;10.98;;;;;;;;;;4995869;28;20018;-70
2022/12/08 11:41:44;;;;;;;18.50;11.43;;;;;;;;;;4995967;28;20381;-69
2022/12/08 11:44:39;;;;;;;21.83;12.10;;;;;;;;;;4995861;28;20057;-69
2022/12/08 11:47:34;;;;;;;17.55;10.70;;;;;;;;;;4995874;28;20026;-69
2022/12/08 11:50:29;;;;;;;16.17;10.07;;;;;;;;;;4995060;28;20173;-69
2022/12/08 11:52:55;;;;;;;17.27;9.88;;;;;;;;;;4995789;28;20026;-69
2022/12/08 11:55:44;;;;;;;17.77;9.63;;;;;;;;;;4995531;28;20084;-69
2022/12/08 11:58:25;;;;;;;14.90;9.50;;;;;;;;;;4995572;28;20360;-69
2022/12/08 12:00:51;;;;;;;18.88;10.48;;;;;;;;;;4995556;28;20072;-69
2022/12/08 12:03:36;;;;;;;15.05;9.60;;;;;;;;;;4995573;28;20483;-69
2022/12/08 12:06:38;;;;;;;15.18;9.60;;;;;;;;;;4995375;28;20057;-69
2022/12/08 12:09:07;;;;;;;16.02;9.45;;;;;;;;;;4994358;28;20039;-69
2022/12/08 12:12:12;;;;;;;14.57;9.10;;;;;;;;;;4995329;28;20026;-69
2022/12/08 12:14:58;;;;;;;16.13;9.50;;;;;;;;;;4995285;28;20088;-69
2022/12/08 12:17:37;;;;;;;16.70;9.98;;;;;;;;;;4995264;28;20026;-69
2022/12/08 12:20:15;;;;;;;14.35;9.48;;;;;;;;;;4994986;28;20042;-69
2022/12/08 12:22:43;;;;;;;14.82;8.48;;;;;;;;;;4994807;28;20026;-69
2022/12/08 12:25:20;;;;;;;12.38;8.02;;;;;;;;;;4994902;28;20143;-69
2022/12/08 12:27:48;;;;;;;14.27;8.80;;;;;;;;;;5000050;28;20025;-69
2022/12/08 12:30:26;;;;;;;16.50;9.20;;;;;;;;;;5014471;28;20117;-69
2022/12/08 12:33:00;;;;;;;17.05;9.55;;;;;;;;;;5014452;28;20111;-69
2022/12/08 12:35:42;;;;;;;18.88;10.20;;;;;;;;;;5013269;28;20377;-69
2022/12/08 12:41:04;;;;;;;17.73;10.00;;;;;;;;;;4994908;28;20032;-69
2022/12/08 12:43:34;;;;;;;17.10;9.18;;;;;;;;;;4994884;28;20034;-69
2022/12/08 12:46:22;;;;;;;18.05;10.93;;;;;;;;;;4994727;28;20018;-69
2022/12/08 12:48:48;;;;;;;18.38;10.52;;;;;;;;;;4994467;28;20382;-69
2022/12/08 12:51:38;;;;;;;15.27;9.52;;;;;;;;;;4994753;28;20733;-69
2022/12/08 12:54:25;;;;;;;14.17;8.90;;;;;;;;;;4994552;28;20359;-69
2022/12/08 12:57:03;;;;;;;16.38;9.82;;;;;;;;;;4994456;28;20101;-69
2022/12/08 12:59:43;;;;;;;14.70;9.07;;;;;;;;;;4994425;28;20399;-69
2022/12/08 13:02:29;;;;;;;12.10;7.68;;;;;;;;;;4994122;28;20098;-69
2022/12/08 13:05:16;;;;;;;13.68;8.13;;;;;;;;;;4994291;28;20485;-69
2022/12/08 13:07:58;;;;;;;14.02;7.35;;;;;;;;;;4994212;28;20023;-69
2022/12/08 13:10:35;;;;;;;10.68;6.97;;;;;;;;;;4994233;28;20030;-69
2022/12/08 13:13:17;;;;;;;11.98;7.30;;;;;;;;;;4994299;28;20445;-69
2022/12/08 13:15:45;;;;;;;15.05;9.60;;;;;;;;;;4994140;28;20054;-69
2022/12/08 13:18:41;;;;;;;16.52;9.60;;;;;;;;;;4994101;28;20030;-69
2022/12/08 13:21:13;;;;;;;28.65;16.20;;;;;;;;;;4991884;28;20058;-69
2022/12/08 13:23:46;;;;;;;20.40;13.63;;;;;;;;;;4994024;28;20022;-69
2022/12/08 13:26:25;;;;;;;22.50;15.30;;;;;;;;;;4993747;28;20062;-69
2022/12/08 13:29:00;;;;;;;24.80;15.52;;;;;;;;;;5001593;28;20034;-69
2022/12/08 13:31:54;;;;;;;24.63;16.90;;;;;;;;;;4986969;28;20377;-70
2022/12/08 13:34:41;;;;;;;19.63;12.52;;;;;;;;;;4993892;28;20038;-69
2022/12/08 13:37:09;;;;;;;17.25;11.40;;;;;;;;;;4992377;28;20026;-69
2022/12/08 13:39:52;;;;;;;18.05;11.60;;;;;;;;;;4993746;28;20023;-69
2022/12/08 13:42:29;;;;;;;16.73;10.73;;;;;;;;;;4993802;28;20030;-69
2022/12/08 13:45:09;;;;;;;21.23;10.85;;;;;;;;;;4993448;28;20544;-69
2022/12/08 13:47:41;;;;;;;19.25;10.75;;;;;;;;;;4993448;28;20445;-69
2022/12/08 13:50:18;;;;;;;24.48;12.32;;;;;;;;;;4993260;28;20027;-69
2022/12/08 13:53:01;;;;;;;22.52;13.18;;;;;;;;;;4992767;28;20130;-69
2022/12/08 13:55:41;;;;;;;36.35;16.85;;;;;;;;;;4993414;28;20034;-69
2022/12/08 13:58:15;;;;;;;30.27;15.35;;;;;;;;;;4993395;28;20198;-69
2022/12/08 14:00:41;;;;;;;20.88;11.75;;;;;;;;;;4993305;28;20537;-69
2022/12/08 14:03:11;;;;;;;19.52;11.90;;;;;;;;;;4991998;28;20117;-70
2022/12/08 14:05:39;;;;;;;;;;;;;;;;;;4993563;28;20030;-69
2022/12/08 14:08:28;;;;;;;12.95;7.38;;;;;;;;;;4993296;28;19918;-69
2022/12/08 14:10:59;;;;;;;13.15;8.10;;;;;;;;;;4992322;28;20042;-69
2022/12/08 14:13:25;;;;;;;10.18;7.03;;;;;;;;;;4993393;28;20037;-69
2022/12/08 14:15:50;;;;;;;12.40;7.45;;;;;;;;;;4993003;28;20412;-69
2022/12/08 14:18:28;;;;;;;11.93;7.03;;;;;;;;;;4993030;28;20084;-68
2022/12/08 14:21:01;;;;;;;14.82;8.52;;;;;;;;;;4993003;28;20018;-69
2022/12/08 14:23:26;;;;;;;15.55;8.65;;;;;;;;;;4993291;28;20030;-69
2022/12/08 14:25:52;;;;;;;17.73;9.93;;;;;;;;;;4992907;28;20042;-69
2022/12/08 14:28:18;;;;;;;15.68;9.50;;;;;;;;;;5002472;28;20042;-68
2022/12/08 14:30:44;;;;;;;20.70;10.70;;;;;;;;;;5012364;28;20033;-68
2022/12/08 14:33:15;;;;;;;17.80;9.75;;;;;;;;;;5012304;28;20026;-68
2022/12/08 14:35:41;;;;;;;12.93;8.93;;;;;;;;;;5012368;28;20033;-69
2022/12/08 14:38:14;;;;;;;18.02;9.05;;;;;;;;;;5012547;28;20157;-68
2022/12/08 14:41:04;;;;;;;15.98;9.27;;;;;;;;;;5012433;28;20076;-68
2022/12/08 14:43:30;;;;;;;16.30;8.07;;;;;;;;;;5006902;28;20527;-69
2022/12/08 14:46:03;;;;;;;14.45;8.38;;;;;;;;;;5012392;28;20465;-69
2022/12/08 14:48:32;;;;;;;18.65;9.50;;;;;;;;;;5012082;28;20159;-68
2022/12/08 14:51:19;;;;;;;17.98;10.32;;;;;;;;;;5012333;28;20044;-68
2022/12/08 14:53:46;;;;;;;17.75;9.98;;;;;;;;;;5010806;28;20057;-68
2022/12/08 14:56:36;;;;;;;20.40;11.90;;;;;;;;;;5012302;28;20029;-69
2022/12/08 14:59:19;;;;;;;19.27;11.13;;;;;;;;;;5012260;28;20496;-68
2022/12/08 15:01:47;;;;;;;19.27;10.23;;;;;;;;;;5012496;28;20030;-68